Terminal Aerodrome Forecast
Issued by NWS

Home | Current Version | Previous Version | Text Only | Print | Product List | Glossary On
Versions: 1 2 3 4 5 6 7 8 9 10 11 12 13
000
FTUS44 KEPZ 191700
TAFLRU
TAF
KLRU 191722Z 1918/2018 35005KT P6SM SCT035
     FM200300 VRB04KT P6SM SCT250=

USA.gov is the U.S. government's official web portal to all federal, state and local government web resources and services.